<?xml version='1.0' encoding='UTF-8'?><gpx version="1.1" creator="JPX - https://github.com/jenetics/jpx" xmlns="http://www.topografix.com/GPX/1/1"><trk><trkseg><trkpt lat="46.14283381572626" lon="13.621900083207676"><ele>608.0</ele><time>2026-05-03T15:45:49.007Z</time></trkpt><trkpt lat="46.14280698343691" lon="13.621817018628175"><ele>608.0</ele><time>2026-05-03T15:45:56.004Z</time></trkpt><trkpt lat="46.14278228108093" lon="13.621726648843335"><ele>608.0</ele><time>2026-05-03T15:46:04.002Z</time></trkpt><trkpt lat="46.1427519856323" lon="13.621637890791726"><ele>608.0</ele><time>2026-05-03T15:46:11.001Z</time></trkpt><trkpt lat="46.14270966451952" lon="13.621562985244864"><ele>608.0</ele><time>2026-05-03T15:46:15.001Z</time></trkpt><trkpt lat="46.14265001682682" lon="13.621531135024298"><ele>608.0</ele><time>2026-05-03T15:46:21Z</time></trkpt><trkpt lat="46.14257379746635" lon="13.621496861172124"><ele>608.0</ele><time>2026-05-03T15:46:28Z</time></trkpt><trkpt lat="46.142508793924094" lon="13.621468635914827"><ele>608.0</ele><time>2026-05-03T15:46:34Z</time></trkpt><trkpt lat="46.14244022986445" lon="13.62142612864292"><ele>608.0</ele><time>2026-05-03T15:46:39.999Z</time></trkpt><trkpt lat="46.142379645052074" lon="13.621379529555567"><ele>608.0</ele><time>2026-05-03T15:46:44.999Z</time></trkpt><trkpt lat="46.142325204389714" lon="13.621331417689017"><ele>608.0</ele><time>2026-05-03T15:46:49.999Z</time></trkpt><trkpt lat="46.142256034975965" lon="13.621277572233172"><ele>608.0</ele><time>2026-05-03T15:46:55.999Z</time></trkpt><trkpt lat="46.14219491554063" lon="13.621230573156735"><ele>608.0</ele><time>2026-05-03T15:47:01.999Z</time></trkpt><trkpt lat="46.14214374079055" lon="13.621174102638372"><ele>608.0</ele><time>2026-05-03T15:47:06.999Z</time></trkpt><trkpt lat="46.14208698349424" lon="13.621111517702367"><ele>609.7142857142857</ele><time>2026-05-03T15:47:11.998Z</time></trkpt><trkpt lat="46.1420357870638" lon="13.62105770299861"><ele>611.4285714285714</ele><time>2026-05-03T15:47:16.998Z</time></trkpt><trkpt lat="46.1419827234589" lon="13.621001734941265"><ele>613.1428571428571</ele><time>2026-05-03T15:47:21.998Z</time></trkpt><trkpt lat="46.141921033765435" lon="13.620938464890314"><ele>614.8571428571429</ele><time>2026-05-03T15:47:27.998Z</time></trkpt><trkpt lat="46.14185930804214" lon="13.620879023021827"><ele>616.5714285714286</ele><time>2026-05-03T15:47:33.998Z</time></trkpt><trkpt lat="46.14179813272734" lon="13.620829210284759"><ele>618.2857142857143</ele><time>2026-05-03T15:47:39.998Z</time></trkpt><trkpt lat="46.141726618922995" lon="13.620798414012645"><ele>620.0</ele><time>2026-05-03T15:47:45.998Z</time></trkpt><trkpt lat="46.141668371527786" lon="13.620758569431983"><ele>620.0</ele><time>2026-05-03T15:47:50.998Z</time></trkpt><trkpt lat="46.141603651713126" lon="13.62072526334097"><ele>620.0</ele><time>2026-05-03T15:47:57Z</time></trkpt><trkpt lat="46.14154748260757" lon="13.620679017930154"><ele>620.0</ele><time>2026-05-03T15:48:03Z</time></trkpt><trkpt lat="46.14149013825745" lon="13.620630315989528"><ele>620.0</ele><time>2026-05-03T15:48:09Z</time></trkpt><trkpt lat="46.14144161859832" lon="13.620560837528465"><ele>620.0</ele><time>2026-05-03T15:48:15Z</time></trkpt><trkpt lat="46.141390457168924" lon="13.620494308010928"><ele>620.0</ele><time>2026-05-03T15:48:21Z</time></trkpt><trkpt lat="46.14135826523887" lon="13.620411580803449"><ele>620.0</ele><time>2026-05-03T15:48:26.999Z</time></trkpt><trkpt lat="46.1413264632416" lon="13.620322173343181"><ele>622.0</ele><time>2026-05-03T15:48:32.999Z</time></trkpt><trkpt lat="46.14130719895109" lon="13.620217520326145"><ele>624.0</ele><time>2026-05-03T15:48:38.999Z</time></trkpt><trkpt lat="46.14127600362452" lon="13.620125263302937"><ele>626.0</ele><time>2026-05-03T15:48:45.999Z</time></trkpt><trkpt lat="46.14125840903314" lon="13.620031562317774"><ele>628.0</ele><time>2026-05-03T15:48:51.999Z</time></trkpt><trkpt lat="46.14123127465029" lon="13.619933750920993"><ele>630.0</ele><time>2026-05-03T15:48:58.999Z</time></trkpt><trkpt lat="46.14120428814619" lon="13.619837330807604"><ele>632.0</ele><time>2026-05-03T15:49:05.999Z</time></trkpt><trkpt lat="46.14114333888128" lon="13.619787613535848"><ele>634.0</ele><time>2026-05-03T15:49:12.999Z</time></trkpt><trkpt lat="46.14108677911589" lon="13.619836066080335"><ele>634.0</ele><time>2026-05-03T15:49:17.999Z</time></trkpt><trkpt lat="46.14103208318017" lon="13.61989323952531"><ele>634.0</ele><time>2026-05-03T15:49:23.998Z</time></trkpt><trkpt lat="46.14097649028736" lon="13.61994523859483"><ele>634.0</ele><time>2026-05-03T15:49:28.998Z</time></trkpt><trkpt lat="46.140917957531386" lon="13.619996455440234"><ele>634.0</ele><time>2026-05-03T15:49:34.998Z</time></trkpt><trkpt lat="46.14086341603425" lon="13.620056802713101"><ele>634.0</ele><time>2026-05-03T15:49:40.998Z</time></trkpt><trkpt lat="46.14080005552764" lon="13.620116774710558"><ele>634.0</ele><time>2026-05-03T15:49:46.998Z</time></trkpt><trkpt lat="46.14074665921227" lon="13.620173798456431"><ele>634.0</ele><time>2026-05-03T15:49:51.998Z</time></trkpt><trkpt lat="46.14069100203235" lon="13.620220049217663"><ele>634.0</ele><time>2026-05-03T15:49:56.998Z</time></trkpt><trkpt lat="46.1406316046407" lon="13.620260706079527"><ele>634.0</ele><time>2026-05-03T15:50:02Z</time></trkpt><trkpt lat="46.140562947047236" lon="13.620288429412453"><ele>634.0</ele><time>2026-05-03T15:50:08Z</time></trkpt><trkpt lat="46.14049292395522" lon="13.620309904837574"><ele>634.0</ele><time>2026-05-03T15:50:13Z</time></trkpt><trkpt lat="46.140425533628004" lon="13.620326303664076"><ele>634.0</ele><time>2026-05-03T15:50:18Z</time></trkpt><trkpt lat="46.14036067573548" lon="13.620344723591943"><ele>634.0</ele><time>2026-05-03T15:50:23Z</time></trkpt><trkpt lat="46.1403004386377" lon="13.620393483347609"><ele>634.0</ele><time>2026-05-03T15:50:28Z</time></trkpt><trkpt lat="46.14026311329973" lon="13.620466907187462"><ele>634.0</ele><time>2026-05-03T15:50:33Z</time></trkpt><trkpt lat="46.14022696157836" lon="13.620542926553748"><ele>634.0</ele><time>2026-05-03T15:50:39.999Z</time></trkpt><trkpt lat="46.140189868305626" lon="13.620623033964392"><ele>634.0</ele><time>2026-05-03T15:50:47.999Z</time></trkpt><trkpt lat="46.14014529135914" lon="13.620700264154888"><ele>634.0</ele><time>2026-05-03T15:50:54.999Z</time></trkpt><trkpt lat="46.14010765282224" lon="13.620774528481405"><ele>634.0</ele><time>2026-05-03T15:51:00.999Z</time></trkpt><trkpt lat="46.140044091329536" lon="13.620823245058167"><ele>634.0</ele><time>2026-05-03T15:51:06.999Z</time></trkpt><trkpt lat="46.139981722166716" lon="13.620868037081557"><ele>634.0</ele><time>2026-05-03T15:51:13.999Z</time></trkpt><trkpt lat="46.13990929453409" lon="13.620880095444576"><ele>634.2857142857143</ele><time>2026-05-03T15:51:19.999Z</time></trkpt><trkpt lat="46.139847004259394" lon="13.620902510599484"><ele>634.5714285714286</ele><time>2026-05-03T15:51:23.999Z</time></trkpt><trkpt lat="46.13977788663065" lon="13.620908436602392"><ele>634.8571428571429</ele><time>2026-05-03T15:51:28.998Z</time></trkpt><trkpt lat="46.139711921479766" lon="13.620905719590041"><ele>635.1428571428571</ele><time>2026-05-03T15:51:33.998Z</time></trkpt><trkpt lat="46.13963881177854" lon="13.620896343417638"><ele>635.4285714285714</ele><time>2026-05-03T15:51:38.998Z</time></trkpt><trkpt lat="46.13957168227727" lon="13.620884021869696"><ele>635.7142857142857</ele><time>2026-05-03T15:51:43.998Z</time></trkpt><trkpt lat="46.1395035055302" lon="13.620878274607485"><ele>636.0</ele><time>2026-05-03T15:51:48.998Z</time></trkpt><trkpt lat="46.13943367965864" lon="13.62087299368964"><ele>636.0</ele><time>2026-05-03T15:51:53.998Z</time></trkpt><trkpt lat="46.13936504066263" lon="13.620904845084361"><ele>636.0</ele><time>2026-05-03T15:51:58.998Z</time></trkpt><trkpt lat="46.139299124499836" lon="13.62092630983267"><ele>636.0</ele><time>2026-05-03T15:52:03.998Z</time></trkpt><trkpt lat="46.13923132886291" lon="13.620951128666494"><ele>636.0</ele><time>2026-05-03T15:52:09Z</time></trkpt><trkpt lat="46.13916200871061" lon="13.620977532174328"><ele>636.0</ele><time>2026-05-03T15:52:14Z</time></trkpt><trkpt lat="46.1390886477681" lon="13.620993965334332"><ele>636.0</ele><time>2026-05-03T15:52:20Z</time></trkpt><trkpt lat="46.13901588879422" lon="13.621030856127891"><ele>636.0</ele><time>2026-05-03T15:52:26Z</time></trkpt><trkpt lat="46.13895366827832" lon="13.621057078838042"><ele>634.8571428571428</ele><time>2026-05-03T15:52:31Z</time></trkpt><trkpt lat="46.13888950689745" lon="13.621075998458185"><ele>633.7142857142858</ele><time>2026-05-03T15:52:36Z</time></trkpt><trkpt lat="46.13881293565979" lon="13.62106647864399"><ele>632.5714285714286</ele><time>2026-05-03T15:52:41Z</time></trkpt><trkpt lat="46.13874139196783" lon="13.62103697149584"><ele>631.4285714285713</ele><time>2026-05-03T15:52:45.999Z</time></trkpt><trkpt lat="46.13867029570344" lon="13.6210088387498"><ele>630.2857142857142</ele><time>2026-05-03T15:52:50.999Z</time></trkpt><trkpt lat="46.13861208922365" lon="13.62097339388589"><ele>629.1428571428571</ele><time>2026-05-03T15:52:54.999Z</time></trkpt><trkpt lat="46.13854282713233" lon="13.620939317568029"><ele>628.0</ele><time>2026-05-03T15:52:59.999Z</time></trkpt><trkpt lat="46.1384780295042" lon="13.620897551731526"><ele>627.9999999999999</ele><time>2026-05-03T15:53:04.999Z</time></trkpt><trkpt lat="46.13841771098133" lon="13.620846892262549"><ele>628.0</ele><time>2026-05-03T15:53:09.999Z</time></trkpt><trkpt lat="46.1383511838572" lon="13.620794354828417"><ele>628.0</ele><time>2026-05-03T15:53:14.999Z</time></trkpt><trkpt lat="46.13828580970841" lon="13.620758019573456"><ele>628.0</ele><time>2026-05-03T15:53:19.999Z</time></trkpt><trkpt lat="46.13822659838814" lon="13.620722212270021"><ele>628.0</ele><time>2026-05-03T15:53:24.999Z</time></trkpt><trkpt lat="46.138160677772404" lon="13.62070836764747"><ele>627.9999999999999</ele><time>2026-05-03T15:53:41.998Z</time></trkpt><trkpt lat="46.1380914394067" lon="13.620760052274637"><ele>628.0</ele><time>2026-05-03T15:53:48.998Z</time></trkpt><trkpt lat="46.138053144414464" lon="13.620844786388563"><ele>626.4285714285713</ele><time>2026-05-03T15:53:54.998Z</time></trkpt><trkpt lat="46.13802985423816" lon="13.620957154469357"><ele>624.8571428571429</ele><time>2026-05-03T15:54:02.998Z</time></trkpt><trkpt lat="46.13799497739621" lon="13.621057184095573"><ele>623.2857142857142</ele><time>2026-05-03T15:54:07.998Z</time></trkpt><trkpt lat="46.13797068446871" lon="13.621142060894075"><ele>621.7142857142857</ele><time>2026-05-03T15:54:13Z</time></trkpt><trkpt lat="46.1379247946515" lon="13.621218836013602"><ele>620.1428571428571</ele><time>2026-05-03T15:54:18Z</time></trkpt><trkpt lat="46.137883374471066" lon="13.62130797247062"><ele>618.5714285714286</ele><time>2026-05-03T15:54:24Z</time></trkpt><trkpt lat="46.13783488491796" lon="13.621370632170851"><ele>617.0</ele><time>2026-05-03T15:54:29Z</time></trkpt><trkpt lat="46.13778415987992" lon="13.621440782315242"><ele>616.4285714285714</ele><time>2026-05-03T15:54:36Z</time></trkpt><trkpt lat="46.13772553783418" lon="13.621493164664406"><ele>615.8571428571428</ele><time>2026-05-03T15:54:44Z</time></trkpt><trkpt lat="46.13764848474491" lon="13.621509050189882"><ele>615.2857142857142</ele><time>2026-05-03T15:54:49Z</time></trkpt><trkpt lat="46.13758363145122" lon="13.6214921265356"><ele>614.7142857142858</ele><time>2026-05-03T15:54:55.999Z</time></trkpt><trkpt lat="46.137516648618124" lon="13.621517823407098"><ele>614.1428571428571</ele><time>2026-05-03T15:55:03.999Z</time></trkpt><trkpt lat="46.13746602395148" lon="13.621463761548194"><ele>613.5714285714286</ele><time>2026-05-03T15:55:11.999Z</time></trkpt><trkpt lat="46.137409271169105" lon="13.621369558332761"><ele>613.0</ele><time>2026-05-03T15:55:22.999Z</time></trkpt><trkpt lat="46.13735617495727" lon="13.621297074027996"><ele>607.1428571428571</ele><time>2026-05-03T15:55:30.999Z</time></trkpt><trkpt lat="46.13732915361312" lon="13.621213405960901"><ele>601.2857142857142</ele><time>2026-05-03T15:55:38.999Z</time></trkpt><trkpt lat="46.13729016434772" lon="13.621127603473585"><ele>595.4285714285713</ele><time>2026-05-03T15:55:44.998Z</time></trkpt><trkpt lat="46.137244491076956" lon="13.621059185711836"><ele>589.5714285714286</ele><time>2026-05-03T15:55:51.998Z</time></trkpt><trkpt lat="46.13720728050566" lon="13.620974177396066"><ele>583.7142857142857</ele><time>2026-05-03T15:55:57.998Z</time></trkpt><trkpt lat="46.13717350125574" lon="13.620894367060611"><ele>577.8571428571428</ele><time>2026-05-03T15:56:02.998Z</time></trkpt><trkpt lat="46.13713753041256" lon="13.62081185662791"><ele>572.0</ele><time>2026-05-03T15:56:08.998Z</time></trkpt><trkpt lat="46.13710018322311" lon="13.62073763806347"><ele>572.8571428571428</ele><time>2026-05-03T15:56:13.998Z</time></trkpt><trkpt lat="46.13706010034568" lon="13.620647954432787"><ele>573.7142857142857</ele><time>2026-05-03T15:56:22Z</time></trkpt><trkpt lat="46.137018975147164" lon="13.620555516569931"><ele>574.5714285714286</ele><time>2026-05-03T15:56:28Z</time></trkpt><trkpt lat="46.13702473719361" lon="13.620455407052672"><ele>575.4285714285713</ele><time>2026-05-03T15:56:33Z</time></trkpt><trkpt lat="46.13699811273503" lon="13.620371120037412"><ele>576.2857142857142</ele><time>2026-05-03T15:56:37Z</time></trkpt><trkpt lat="46.136994585916696" lon="13.620275041847693"><ele>577.1428571428571</ele><time>2026-05-03T15:56:43Z</time></trkpt><trkpt lat="46.13697893879831" lon="13.620172995488108"><ele>578.0</ele><time>2026-05-03T15:56:49Z</time></trkpt><trkpt lat="46.13697504463903" lon="13.620077840650412"><ele>578.0</ele><time>2026-05-03T15:56:55Z</time></trkpt><trkpt lat="46.136952905057456" lon="13.619988718819048"><ele>578.0</ele><time>2026-05-03T15:57:03.999Z</time></trkpt><trkpt lat="46.13694061489174" lon="13.619883114097805"><ele>578.0</ele><time>2026-05-03T15:57:15.999Z</time></trkpt><trkpt lat="46.13696222779795" lon="13.619793970110605"><ele>578.0</ele><time>2026-05-03T15:57:30.999Z</time></trkpt><trkpt lat="46.136970354474116" lon="13.619884343053075"><ele>578.0</ele><time>2026-05-03T15:58:19.998Z</time></trkpt><trkpt lat="46.136912645652856" lon="13.619825085893147"><ele>578.0</ele><time>2026-05-03T15:58:30Z</time></trkpt><trkpt lat="46.13684163543043" lon="13.619792856296238"><ele>578.0</ele><time>2026-05-03T15:58:39Z</time></trkpt><trkpt lat="46.136776286555495" lon="13.619787735800761"><ele>578.0</ele><time>2026-05-03T15:58:47Z</time></trkpt><trkpt lat="46.136717454232326" lon="13.61975335416735"><ele>578.0</ele><time>2026-05-03T15:58:55Z</time></trkpt><trkpt lat="46.13665885648293" lon="13.619705710605265"><ele>578.0</ele><time>2026-05-03T15:59:03Z</time></trkpt><trkpt lat="46.13660484264315" lon="13.619647781273178"><ele>578.0</ele><time>2026-05-03T15:59:09.999Z</time></trkpt><trkpt lat="46.136538182996745" lon="13.619681818497122"><ele>578.0</ele><time>2026-05-03T15:59:19.999Z</time></trkpt><trkpt lat="46.13647074598771" lon="13.619745829415875"><ele>578.0</ele><time>2026-05-03T15:59:28.999Z</time></trkpt><trkpt lat="46.1363901149985" lon="13.619724988368858"><ele>578.0</ele><time>2026-05-03T15:59:34.999Z</time></trkpt><trkpt lat="46.13631610973178" lon="13.61970856256077"><ele>573.5714285714286</ele><time>2026-05-03T15:59:41.999Z</time></trkpt><trkpt lat="46.13625269540991" lon="13.619727915408344"><ele>569.1428571428571</ele><time>2026-05-03T15:59:46.999Z</time></trkpt><trkpt lat="46.13617939915001" lon="13.619736640948775"><ele>564.7142857142857</ele><time>2026-05-03T15:59:52.998Z</time></trkpt><trkpt lat="46.13611633439539" lon="13.619702673202024"><ele>560.2857142857142</ele><time>2026-05-03T15:59:57.998Z</time></trkpt><trkpt lat="46.13604868722808" lon="13.619668190818196"><ele>555.8571428571428</ele><time>2026-05-03T16:00:03.998Z</time></trkpt><trkpt lat="46.13598538142848" lon="13.619643500630913"><ele>551.4285714285714</ele><time>2026-05-03T16:00:08.998Z</time></trkpt><trkpt lat="46.135922919557366" lon="13.619597640631088"><ele>547.0</ele><time>2026-05-03T16:00:13.998Z</time></trkpt><trkpt lat="46.13586838529465" lon="13.619544444791414"><ele>548.4285714285714</ele><time>2026-05-03T16:00:18.998Z</time></trkpt><trkpt lat="46.135823818984605" lon="13.61946407523354"><ele>549.8571428571428</ele><time>2026-05-03T16:00:23.998Z</time></trkpt><trkpt lat="46.1357866095528" lon="13.619388567716243"><ele>551.2857142857142</ele><time>2026-05-03T16:00:27.998Z</time></trkpt><trkpt lat="46.13575327326849" lon="13.619309297172135"><ele>552.7142857142857</ele><time>2026-05-03T16:00:32Z</time></trkpt><trkpt lat="46.13572775340396" lon="13.619204940136461"><ele>554.1428571428571</ele><time>2026-05-03T16:00:37Z</time></trkpt><trkpt lat="46.1356900093253" lon="13.619123437704577"><ele>555.5714285714286</ele><time>2026-05-03T16:00:42Z</time></trkpt><trkpt lat="46.13564126077674" lon="13.619048223453877"><ele>557.0</ele><time>2026-05-03T16:00:49Z</time></trkpt><trkpt lat="46.13561560581181" lon="13.618962671623956"><ele>557.0</ele><time>2026-05-03T16:00:58Z</time></trkpt><trkpt lat="46.135571312445485" lon="13.618895291780772"><ele>557.0</ele><time>2026-05-03T16:01:19.999Z</time></trkpt><trkpt lat="46.135545254675485" lon="13.618809911443924"><ele>557.0</ele><time>2026-05-03T16:01:24.999Z</time></trkpt><trkpt lat="46.135503904846814" lon="13.618723167525193"><ele>557.0</ele><time>2026-05-03T16:01:31.999Z</time></trkpt><trkpt lat="46.135458806253034" lon="13.618644391788948"><ele>557.0</ele><time>2026-05-03T16:01:36.999Z</time></trkpt><trkpt lat="46.13541676584477" lon="13.618564761580377"><ele>557.0</ele><time>2026-05-03T16:01:42.999Z</time></trkpt><trkpt lat="46.135383485791074" lon="13.618483892670467"><ele>557.0</ele><time>2026-05-03T16:01:49.999Z</time></trkpt><trkpt lat="46.13536361131796" lon="13.61838524121053"><ele>561.2857142857143</ele><time>2026-05-03T16:01:56.999Z</time></trkpt><trkpt lat="46.135297151109995" lon="13.618348631455696"><ele>565.5714285714286</ele><time>2026-05-03T16:02:07.998Z</time></trkpt><trkpt lat="46.13523035006259" lon="13.61833803686293"><ele>569.8571428571429</ele><time>2026-05-03T16:02:14.998Z</time></trkpt><trkpt lat="46.13515507169368" lon="13.618324777197639"><ele>574.1428571428571</ele><time>2026-05-03T16:02:20.998Z</time></trkpt><trkpt lat="46.135090069559496" lon="13.618324380406532"><ele>578.4285714285714</ele><time>2026-05-03T16:02:26.998Z</time></trkpt><trkpt lat="46.13501779797355" lon="13.61834741568721"><ele>582.7142857142858</ele><time>2026-05-03T16:02:33.998Z</time></trkpt><trkpt lat="46.13495411562847" lon="13.618383952999702"><ele>587.0</ele><time>2026-05-03T16:02:42Z</time></trkpt><trkpt lat="46.134888039350514" lon="13.618407258660508"><ele>586.7142857142858</ele><time>2026-05-03T16:02:56Z</time></trkpt><trkpt lat="46.13481991265943" lon="13.618450126237144"><ele>586.4285714285714</ele><time>2026-05-03T16:03:02Z</time></trkpt><trkpt lat="46.13475430747796" lon="13.618448167952652"><ele>586.1428571428571</ele><time>2026-05-03T16:03:08Z</time></trkpt><trkpt lat="46.13468137505731" lon="13.618446897483878"><ele>585.8571428571429</ele><time>2026-05-03T16:03:14Z</time></trkpt><trkpt lat="46.13461376543021" lon="13.61842690666009"><ele>585.5714285714286</ele><time>2026-05-03T16:03:19.999Z</time></trkpt><trkpt lat="46.13454782614139" lon="13.618426468610362"><ele>585.2857142857143</ele><time>2026-05-03T16:03:25.999Z</time></trkpt><trkpt lat="46.134481150473924" lon="13.618411967946924"><ele>585.0</ele><time>2026-05-03T16:03:31.999Z</time></trkpt><trkpt lat="46.13440844018433" lon="13.618437063266736"><ele>585.0</ele><time>2026-05-03T16:03:39.999Z</time></trkpt><trkpt lat="46.134331710925885" lon="13.6184484911941"><ele>585.0</ele><time>2026-05-03T16:04:48Z</time></trkpt><trkpt lat="46.13426823317437" lon="13.618487481975425"><ele>585.0</ele><time>2026-05-03T16:04:57Z</time></trkpt><trkpt lat="46.13420503296456" lon="13.618526520151944"><ele>585.0</ele><time>2026-05-03T16:05:05Z</time></trkpt><trkpt lat="46.13413398323645" lon="13.618536133428586"><ele>585.0</ele><time>2026-05-03T16:05:14Z</time></trkpt><trkpt lat="46.13405579544286" lon="13.618533014979874"><ele>585.0</ele><time>2026-05-03T16:05:21.999Z</time></trkpt><trkpt lat="46.13401610453954" lon="13.61844556409963"><ele>585.0</ele><time>2026-05-03T16:05:26.999Z</time></trkpt><trkpt lat="46.13399677627817" lon="13.6183548134553"><ele>583.1428571428571</ele><time>2026-05-03T16:05:33.999Z</time></trkpt><trkpt lat="46.13399208208139" lon="13.618261626178574"><ele>581.2857142857142</ele><time>2026-05-03T16:05:38.999Z</time></trkpt><trkpt lat="46.1339907374798" lon="13.618164379767002"><ele>579.4285714285713</ele><time>2026-05-03T16:05:44.999Z</time></trkpt><trkpt lat="46.133986412167516" lon="13.618057535053973"><ele>577.5714285714286</ele><time>2026-05-03T16:05:50.999Z</time></trkpt><trkpt lat="46.133953211393134" lon="13.61797457869542"><ele>575.7142857142857</ele><time>2026-05-03T16:05:55.999Z</time></trkpt><trkpt lat="46.13392902927851" lon="13.617870718576079"><ele>573.8571428571428</ele><time>2026-05-03T16:06:01.999Z</time></trkpt><trkpt lat="46.13392131302813" lon="13.617771767317173"><ele>572.0</ele><time>2026-05-03T16:06:06.998Z</time></trkpt><trkpt lat="46.13393450164192" lon="13.617675829049558"><ele>570.9999999999999</ele><time>2026-05-03T16:06:11.998Z</time></trkpt><trkpt lat="46.13395757533973" lon="13.617583831884156"><ele>570.0</ele><time>2026-05-03T16:06:17.998Z</time></trkpt><trkpt lat="46.133975945039516" lon="13.617477576015911"><ele>569.0</ele><time>2026-05-03T16:06:23.998Z</time></trkpt><trkpt lat="46.1339957678493" lon="13.617381598837884"><ele>568.0</ele><time>2026-05-03T16:06:28.998Z</time></trkpt><trkpt lat="46.13402057724377" lon="13.617292543218976"><ele>567.0</ele><time>2026-05-03T16:06:33.998Z</time></trkpt><trkpt lat="46.1340467604721" lon="13.617195655482117"><ele>565.9999999999999</ele><time>2026-05-03T16:06:39.998Z</time></trkpt><trkpt lat="46.13407603282932" lon="13.617113721365628"><ele>565.0</ele><time>2026-05-03T16:06:44.998Z</time></trkpt><trkpt lat="46.13409135674013" lon="13.617011109019531"><ele>564.1428571428571</ele><time>2026-05-03T16:06:51Z</time></trkpt><trkpt lat="46.13406883223546" lon="13.616924722877618"><ele>563.2857142857142</ele><time>2026-05-03T16:06:56Z</time></trkpt><trkpt lat="46.1340693480127" lon="13.61682066648616"><ele>562.4285714285714</ele><time>2026-05-03T16:07:03Z</time></trkpt><trkpt lat="46.13398861671125" lon="13.61682382698299"><ele>561.5714285714286</ele><time>2026-05-03T16:07:24.999Z</time></trkpt><trkpt lat="46.13398954777801" lon="13.616918975848925"><ele>560.7142857142858</ele><time>2026-05-03T16:07:31.999Z</time></trkpt><trkpt lat="46.13391898633436" lon="13.616903575302548"><ele>559.8571428571429</ele><time>2026-05-03T16:07:40.999Z</time></trkpt><trkpt lat="46.1338982253439" lon="13.616813444436554"><ele>559.0</ele><time>2026-05-03T16:07:47.999Z</time></trkpt><trkpt lat="46.13388263034167" lon="13.616721823257157"><ele>559.0</ele><time>2026-05-03T16:07:55.999Z</time></trkpt><trkpt lat="46.133853080003774" lon="13.61662509976431"><ele>559.0</ele><time>2026-05-03T16:08:02.999Z</time></trkpt><trkpt lat="46.13382995733106" lon="13.616540179844877"><ele>559.0</ele><time>2026-05-03T16:08:08.999Z</time></trkpt><trkpt lat="46.13377893089772" lon="13.616480681637437"><ele>559.0</ele><time>2026-05-03T16:08:14.998Z</time></trkpt><trkpt lat="46.13372264813437" lon="13.616418641560475"><ele>559.0</ele><time>2026-05-03T16:08:23.998Z</time></trkpt><trkpt lat="46.13367743393315" lon="13.616326277918116"><ele>559.0</ele><time>2026-05-03T16:08:32.998Z</time></trkpt><trkpt lat="46.13364426493497" lon="13.616235071001702"><ele>559.0</ele><time>2026-05-03T16:08:38.998Z</time></trkpt><trkpt lat="46.13360070842206" lon="13.616156916365306"><ele>560.2857142857143</ele><time>2026-05-03T16:08:44.998Z</time></trkpt><trkpt lat="46.13355336477015" lon="13.61607856707342"><ele>561.5714285714287</ele><time>2026-05-03T16:08:50.998Z</time></trkpt><trkpt lat="46.13353497817019" lon="13.61598010542672"><ele>562.8571428571429</ele><time>2026-05-03T16:08:56Z</time></trkpt><trkpt lat="46.13352143517086" lon="13.61588291958581"><ele>564.1428571428571</ele><time>2026-05-03T16:09:04Z</time></trkpt><trkpt lat="46.13348982510745" lon="13.615790150972527"><ele>565.4285714285713</ele><time>2026-05-03T16:09:10Z</time></trkpt><trkpt lat="46.13345034548831" lon="13.615700323509897"><ele>566.7142857142857</ele><time>2026-05-03T16:09:16Z</time></trkpt><trkpt lat="46.13341574865914" lon="13.615623299031675"><ele>568.0</ele><time>2026-05-03T16:09:26Z</time></trkpt><trkpt lat="46.13335759266798" lon="13.61556395746578"><ele>568.0</ele><time>2026-05-03T16:09:32.999Z</time></trkpt><trkpt lat="46.13329372307243" lon="13.615535656040302"><ele>568.0</ele><time>2026-05-03T16:09:38.999Z</time></trkpt><trkpt lat="46.13322914646456" lon="13.615515246972448"><ele>568.0</ele><time>2026-05-03T16:09:46.999Z</time></trkpt><trkpt lat="46.13318585731562" lon="13.615426456595426"><ele>568.0</ele><time>2026-05-03T16:09:53.999Z</time></trkpt><trkpt lat="46.13315076621722" lon="13.615348039351687"><ele>568.0</ele><time>2026-05-03T16:10:05.999Z</time></trkpt><trkpt lat="46.13310720154984" lon="13.61528020103069"><ele>568.0</ele><time>2026-05-03T16:10:10.999Z</time></trkpt><trkpt lat="46.13306748791938" lon="13.615193360062152"><ele>568.0</ele><time>2026-05-03T16:10:15.999Z</time></trkpt><trkpt lat="46.13304216908449" lon="13.61510637046779"><ele>567.8571428571429</ele><time>2026-05-03T16:10:20.998Z</time></trkpt><trkpt lat="46.13301042325404" lon="13.615010417966081"><ele>567.7142857142857</ele><time>2026-05-03T16:10:25.998Z</time></trkpt><trkpt lat="46.132973831681696" lon="13.614909250291308"><ele>567.5714285714286</ele><time>2026-05-03T16:10:31.998Z</time></trkpt><trkpt lat="46.132910581122594" lon="13.61485951772693"><ele>567.4285714285714</ele><time>2026-05-03T16:10:40.998Z</time></trkpt><trkpt lat="46.13284273384284" lon="13.614851051771156"><ele>567.2857142857142</ele><time>2026-05-03T16:10:48.998Z</time></trkpt><trkpt lat="46.13277482743688" lon="13.614838097222242"><ele>567.1428571428571</ele><time>2026-05-03T16:10:54.998Z</time></trkpt><trkpt lat="46.132714586106644" lon="13.614907962818911"><ele>567.0</ele><time>2026-05-03T16:10:59.998Z</time></trkpt><trkpt lat="46.132642761085684" lon="13.614926948429055"><ele>567.0</ele><time>2026-05-03T16:11:06Z</time></trkpt><trkpt lat="46.13257619333357" lon="13.614882953105601"><ele>567.0</ele><time>2026-05-03T16:11:11Z</time></trkpt><trkpt lat="46.132515968416726" lon="13.614931254931465"><ele>567.0</ele><time>2026-05-03T16:11:18Z</time></trkpt><trkpt lat="46.13245084442073" lon="13.614976166910909"><ele>567.0</ele><time>2026-05-03T16:11:26Z</time></trkpt><trkpt lat="46.132382392023786" lon="13.615031069580288"><ele>567.0</ele><time>2026-05-03T16:11:35Z</time></trkpt><trkpt lat="46.1323420875029" lon="13.61510642191198"><ele>567.0</ele><time>2026-05-03T16:11:41.999Z</time></trkpt><trkpt lat="46.132282020670246" lon="13.615155177137074"><ele>567.0</ele><time>2026-05-03T16:11:47.999Z</time></trkpt><trkpt lat="46.132227627605616" lon="13.615216134317283"><ele>569.0</ele><time>2026-05-03T16:11:53.999Z</time></trkpt><trkpt lat="46.13216040948311" lon="13.61523677473734"><ele>571.0</ele><time>2026-05-03T16:11:58.999Z</time></trkpt><trkpt lat="46.13209136414294" lon="13.615274075950143"><ele>573.0</ele><time>2026-05-03T16:12:03.999Z</time></trkpt><trkpt lat="46.13202080233824" lon="13.615312451849588"><ele>575.0</ele><time>2026-05-03T16:12:08.999Z</time></trkpt><trkpt lat="46.13196220735779" lon="13.61536260484518"><ele>577.0</ele><time>2026-05-03T16:12:14.999Z</time></trkpt><trkpt lat="46.1318960238006" lon="13.615384551284103"><ele>579.0</ele><time>2026-05-03T16:12:20.999Z</time></trkpt><trkpt lat="46.13182772638604" lon="13.615402870578308"><ele>581.0</ele><time>2026-05-03T16:12:25.998Z</time></trkpt><trkpt lat="46.13175663914323" lon="13.615387979337038"><ele>576.0</ele><time>2026-05-03T16:12:31.998Z</time></trkpt><trkpt lat="46.13169243974037" lon="13.615400048774708"><ele>571.0</ele><time>2026-05-03T16:12:36.998Z</time></trkpt><trkpt lat="46.13162271654246" lon="13.6153869046684"><ele>566.0</ele><time>2026-05-03T16:12:41.998Z</time></trkpt><trkpt lat="46.131566121816874" lon="13.615432021918965"><ele>561.0</ele><time>2026-05-03T16:12:46.998Z</time></trkpt><trkpt lat="46.13149297128579" lon="13.615462960735723"><ele>556.0</ele><time>2026-05-03T16:12:53.998Z</time></trkpt><trkpt lat="46.131427464813015" lon="13.615455373399614"><ele>551.0</ele><time>2026-05-03T16:12:58.998Z</time></trkpt><trkpt lat="46.131360573106186" lon="13.615416944675598"><ele>546.0</ele><time>2026-05-03T16:13:04.998Z</time></trkpt><trkpt lat="46.1312927192724" lon="13.615422398424043"><ele>545.1428571428571</ele><time>2026-05-03T16:13:10Z</time></trkpt><trkpt lat="46.13121911599118" lon="13.615425775904974"><ele>544.2857142857142</ele><time>2026-05-03T16:13:15Z</time></trkpt><trkpt lat="46.13114979668153" lon="13.615427465845052"><ele>543.4285714285714</ele><time>2026-05-03T16:13:20Z</time></trkpt><trkpt lat="46.13107694679575" lon="13.615440219248189"><ele>542.5714285714286</ele><time>2026-05-03T16:13:26Z</time></trkpt><trkpt lat="46.131016855562976" lon="13.615405729609556"><ele>541.7142857142857</ele><time>2026-05-03T16:13:31Z</time></trkpt><trkpt lat="46.13097876103221" lon="13.61531662606221"><ele>540.8571428571429</ele><time>2026-05-03T16:13:36Z</time></trkpt><trkpt lat="46.13092990204586" lon="13.615231912031575"><ele>540.0</ele><time>2026-05-03T16:13:42Z</time></trkpt><trkpt lat="46.13087837105173" lon="13.615155110103217"><ele>544.2857142857142</ele><time>2026-05-03T16:13:47.999Z</time></trkpt><trkpt lat="46.13082942312474" lon="13.61509343601308"><ele>548.5714285714286</ele><time>2026-05-03T16:13:53.999Z</time></trkpt><trkpt lat="46.13077388762765" lon="13.615050017481625"><ele>552.8571428571429</ele><time>2026-05-03T16:13:58.999Z</time></trkpt><trkpt lat="46.130713291043925" lon="13.614989121752409"><ele>557.1428571428571</ele><time>2026-05-03T16:14:04.999Z</time></trkpt><trkpt lat="46.130666640841824" lon="13.614916249670067"><ele>561.4285714285714</ele><time>2026-05-03T16:14:09.999Z</time></trkpt><trkpt lat="46.13060754841925" lon="13.614867520056578"><ele>565.7142857142857</ele><time>2026-05-03T16:14:15.999Z</time></trkpt><trkpt lat="46.1305558353735" lon="13.614812406209685"><ele>570.0</ele><time>2026-05-03T16:14:20.999Z</time></trkpt><trkpt lat="46.130508599613265" lon="13.614749529830759"><ele>570.0</ele><time>2026-05-03T16:14:26.999Z</time></trkpt><trkpt lat="46.13045408957268" lon="13.61479621415136"><ele>570.0</ele><time>2026-05-03T16:14:44.998Z</time></trkpt><trkpt lat="46.130409599883244" lon="13.614862789506441"><ele>570.0</ele><time>2026-05-03T16:14:49.998Z</time></trkpt><trkpt lat="46.13034301188137" lon="13.614859880838704"><ele>570.0</ele><time>2026-05-03T16:14:54.998Z</time></trkpt><trkpt lat="46.13027512956098" lon="13.614883003697363"><ele>570.0</ele><time>2026-05-03T16:15:00.998Z</time></trkpt><trkpt lat="46.130202008493576" lon="13.614887313555036"><ele>570.0</ele><time>2026-05-03T16:15:06.998Z</time></trkpt><trkpt lat="46.130151511576805" lon="13.614942550843011"><ele>570.0</ele><time>2026-05-03T16:15:11.998Z</time></trkpt><trkpt lat="46.130086136347515" lon="13.614967658856026"><ele>570.0</ele><time>2026-05-03T16:15:45Z</time></trkpt><trkpt lat="46.13006697660005" lon="13.61506643563363"><ele>570.0</ele><time>2026-05-03T16:15:49.999Z</time></trkpt><trkpt lat="46.130018853163705" lon="13.615153590713245"><ele>570.0</ele><time>2026-05-03T16:15:54.999Z</time></trkpt><trkpt lat="46.129954804809564" lon="13.615177771507426"><ele>570.0</ele><time>2026-05-03T16:15:59.999Z</time></trkpt><trkpt lat="46.12989392214897" lon="13.615212119751591"><ele>570.0</ele><time>2026-05-03T16:16:04.999Z</time></trkpt><trkpt lat="46.1298246801884" lon="13.615172356872048"><ele>570.0</ele><time>2026-05-03T16:16:09.999Z</time></trkpt><trkpt lat="46.129768393702726" lon="13.615129545759904"><ele>570.0</ele><time>2026-05-03T16:16:14.999Z</time></trkpt><trkpt lat="46.129713278569824" lon="13.615073562590213"><ele>571.2857142857142</ele><time>2026-05-03T16:16:19.999Z</time></trkpt><trkpt lat="46.12965259817182" lon="13.615035650306913"><ele>572.5714285714286</ele><time>2026-05-03T16:16:24.999Z</time></trkpt><trkpt lat="46.12958863581115" lon="13.615085303632025"><ele>573.8571428571429</ele><time>2026-05-03T16:16:31.999Z</time></trkpt><trkpt lat="46.12951539899871" lon="13.615070699218412"><ele>575.1428571428571</ele><time>2026-05-03T16:16:37.998Z</time></trkpt><trkpt lat="46.129441661612326" lon="13.615128062855664"><ele>576.4285714285714</ele><time>2026-05-03T16:16:43.998Z</time></trkpt><trkpt lat="46.129397655038474" lon="13.615203880601003"><ele>577.7142857142857</ele><time>2026-05-03T16:16:48.998Z</time></trkpt><trkpt lat="46.129345141519096" lon="13.615271572865726"><ele>579.0</ele><time>2026-05-03T16:16:53.998Z</time></trkpt><trkpt lat="46.12930757995245" lon="13.615356029633933"><ele>575.7142857142857</ele><time>2026-05-03T16:16:59.998Z</time></trkpt><trkpt lat="46.129249804937665" lon="13.615405696980465"><ele>572.4285714285714</ele><time>2026-05-03T16:17:06.998Z</time></trkpt><trkpt lat="46.12918803895311" lon="13.615427946715853"><ele>569.1428571428571</ele><time>2026-05-03T16:17:12.998Z</time></trkpt><trkpt lat="46.12912313097396" lon="13.615440143032473"><ele>565.8571428571429</ele><time>2026-05-03T16:17:17.998Z</time></trkpt><trkpt lat="46.129053771831245" lon="13.615451521765197"><ele>562.5714285714286</ele><time>2026-05-03T16:17:23Z</time></trkpt><trkpt lat="46.12898920535714" lon="13.615443707767822"><ele>559.2857142857142</ele><time>2026-05-03T16:17:28Z</time></trkpt><trkpt lat="46.12892096429102" lon="13.615429028630837"><ele>556.0</ele><time>2026-05-03T16:17:34Z</time></trkpt><trkpt lat="46.12885629057902" lon="13.615426475573663"><ele>556.0</ele><time>2026-05-03T16:17:39Z</time></trkpt><trkpt lat="46.12878667025537" lon="13.615444236053262"><ele>556.0</ele><time>2026-05-03T16:17:45Z</time></trkpt><trkpt lat="46.12872146920164" lon="13.615431271991318"><ele>556.0</ele><time>2026-05-03T16:17:50Z</time></trkpt><trkpt lat="46.128649727728" lon="13.615460003576965"><ele>556.0</ele><time>2026-05-03T16:17:55.999Z</time></trkpt><trkpt lat="46.128583737716944" lon="13.615492809522136"><ele>556.0</ele><time>2026-05-03T16:18:03.999Z</time></trkpt><trkpt lat="46.12851124289171" lon="13.615536154666641"><ele>556.0</ele><time>2026-05-03T16:18:10.999Z</time></trkpt><trkpt lat="46.128461901175974" lon="13.615594363547123"><ele>556.0</ele><time>2026-05-03T16:18:16.999Z</time></trkpt><trkpt lat="46.128402423616436" lon="13.615637379413862"><ele>556.0</ele><time>2026-05-03T16:18:23.999Z</time></trkpt><trkpt lat="46.12834174627323" lon="13.615684996909152"><ele>556.0</ele><time>2026-05-03T16:18:34.999Z</time></trkpt><trkpt lat="46.1282807215253" lon="13.615726976999087"><ele>556.0</ele><time>2026-05-03T16:18:39.998Z</time></trkpt><trkpt lat="46.12821777142382" lon="13.615784921471622"><ele>556.0</ele><time>2026-05-03T16:18:45.998Z</time></trkpt><trkpt lat="46.12814041891188" lon="13.615809659091749"><ele>556.0</ele><time>2026-05-03T16:18:51.998Z</time></trkpt><trkpt lat="46.128079596336285" lon="13.615835522271304"><ele>556.0</ele><time>2026-05-03T16:18:56.998Z</time></trkpt><trkpt lat="46.1280040301113" lon="13.615820609474293"><ele>556.0</ele><time>2026-05-03T16:19:02.998Z</time></trkpt><trkpt lat="46.12794024062634" lon="13.615819273512827"><ele>554.2857142857142</ele><time>2026-05-03T16:19:09.998Z</time></trkpt><trkpt lat="46.12787090558318" lon="13.615832806183782"><ele>552.5714285714286</ele><time>2026-05-03T16:19:16.998Z</time></trkpt><trkpt lat="46.1278077755443" lon="13.615828192053575"><ele>550.8571428571429</ele><time>2026-05-03T16:19:26Z</time></trkpt><trkpt lat="46.127745944501655" lon="13.615781311168165"><ele>549.1428571428571</ele><time>2026-05-03T16:19:32Z</time></trkpt><trkpt lat="46.12771762337153" lon="13.615694853784216"><ele>547.4285714285714</ele><time>2026-05-03T16:19:38Z</time></trkpt><trkpt lat="46.127725167851345" lon="13.615598664287896"><ele>545.7142857142857</ele><time>2026-05-03T16:19:43Z</time></trkpt><trkpt lat="46.12774373368441" lon="13.615508182140216"><ele>544.0</ele><time>2026-05-03T16:19:48Z</time></trkpt><trkpt lat="46.12775029190142" lon="13.615416731501611"><ele>543.9999999999999</ele><time>2026-05-03T16:19:53Z</time></trkpt><trkpt lat="46.12777933738617" lon="13.615326452250901"><ele>544.0</ele><time>2026-05-03T16:19:58Z</time></trkpt><trkpt lat="46.12779846395416" lon="13.615222038925344"><ele>544.0</ele><time>2026-05-03T16:20:02.999Z</time></trkpt><trkpt lat="46.127802823057365" lon="13.61512337805207"><ele>544.0</ele><time>2026-05-03T16:20:07.999Z</time></trkpt><trkpt lat="46.12778787664862" lon="13.615020857062099"><ele>544.0</ele><time>2026-05-03T16:20:13.999Z</time></trkpt><trkpt lat="46.12778276123191" lon="13.614923863480827"><ele>543.9999999999999</ele><time>2026-05-03T16:20:18.999Z</time></trkpt><trkpt lat="46.127758294194585" lon="13.614823198450175"><ele>544.0</ele><time>2026-05-03T16:20:23.999Z</time></trkpt><trkpt lat="46.12773031999036" lon="13.614728101754867"><ele>544.7142857142857</ele><time>2026-05-03T16:20:28.999Z</time></trkpt><trkpt lat="46.12771033598466" lon="13.614635451238053"><ele>545.4285714285714</ele><time>2026-05-03T16:20:34.999Z</time></trkpt><trkpt lat="46.12770168317565" lon="13.614531256466332"><ele>546.1428571428571</ele><time>2026-05-03T16:20:41.999Z</time></trkpt><trkpt lat="46.127697019313615" lon="13.614411632317601"><ele>546.8571428571429</ele><time>2026-05-03T16:20:55.998Z</time></trkpt><trkpt lat="46.12765214306741" lon="13.614329451372017"><ele>547.5714285714286</ele><time>2026-05-03T16:21:06.998Z</time></trkpt><trkpt lat="46.127620950782905" lon="13.614238690568866"><ele>548.2857142857142</ele><time>2026-05-03T16:21:12.998Z</time></trkpt><trkpt lat="46.12758757364749" lon="13.614152865714102"><ele>549.0</ele><time>2026-05-03T16:21:20.998Z</time></trkpt><trkpt lat="46.1275517661559" lon="13.61407782392779"><ele>548.7142857142857</ele><time>2026-05-03T16:21:26.998Z</time></trkpt><trkpt lat="46.127519781079364" lon="13.613997438521228"><ele>548.4285714285714</ele><time>2026-05-03T16:21:32Z</time></trkpt><trkpt lat="46.12747950598962" lon="13.613908305740749"><ele>548.1428571428571</ele><time>2026-05-03T16:21:38Z</time></trkpt><trkpt lat="46.12744367255133" lon="13.613818757639653"><ele>547.8571428571429</ele><time>2026-05-03T16:21:43Z</time></trkpt><trkpt lat="46.12739910265188" lon="13.613746721064793"><ele>547.5714285714286</ele><time>2026-05-03T16:21:50Z</time></trkpt><trkpt lat="46.1273615431438" lon="13.613666525507584"><ele>547.2857142857142</ele><time>2026-05-03T16:21:55Z</time></trkpt><trkpt lat="46.127328640120346" lon="13.613580378376923"><ele>547.0</ele><time>2026-05-03T16:22:01Z</time></trkpt><trkpt lat="46.12729636404623" lon="13.61349997337617"><ele>548.0</ele><time>2026-05-03T16:22:06Z</time></trkpt><trkpt lat="46.127258899163515" lon="13.61341828879308"><ele>549.0</ele><time>2026-05-03T16:22:11Z</time></trkpt><trkpt lat="46.12723064910281" lon="13.61333547046082"><ele>550.0</ele><time>2026-05-03T16:22:15.999Z</time></trkpt><trkpt lat="46.127231697295564" lon="13.613242836706817"><ele>551.0</ele><time>2026-05-03T16:22:26.999Z</time></trkpt><trkpt lat="46.12726095582153" lon="13.613161353944648"><ele>552.0</ele><time>2026-05-03T16:22:31.999Z</time></trkpt><trkpt lat="46.12730728943876" lon="13.613090468978738"><ele>553.0</ele><time>2026-05-03T16:22:36.999Z</time></trkpt><trkpt lat="46.12735790694518" lon="13.613005983103454"><ele>554.0</ele><time>2026-05-03T16:22:42.999Z</time></trkpt><trkpt lat="46.12740473099962" lon="13.612932937956804"><ele>554.0</ele><time>2026-05-03T16:22:47.999Z</time></trkpt><trkpt lat="46.12734793281125" lon="13.612885853996682"><ele>554.0</ele><time>2026-05-03T16:23:01.998Z</time></trkpt><trkpt lat="46.12728610369317" lon="13.612913575071273"><ele>554.0</ele><time>2026-05-03T16:23:06.998Z</time></trkpt><trkpt lat="46.12722200148196" lon="13.612930498594876"><ele>554.0</ele><time>2026-05-03T16:23:11.998Z</time></trkpt><trkpt lat="46.127147759735465" lon="13.61294704786012"><ele>554.0</ele><time>2026-05-03T16:23:16.998Z</time></trkpt><trkpt lat="46.127077492121856" lon="13.612958923203605"><ele>554.0</ele><time>2026-05-03T16:23:21.998Z</time></trkpt><trkpt lat="46.127011346270706" lon="13.612961282911952"><ele>554.0</ele><time>2026-05-03T16:23:26.998Z</time></trkpt><trkpt lat="46.127061058997256" lon="13.61290168303236"><ele>554.0</ele><time>2026-05-03T16:23:35.998Z</time></trkpt><trkpt lat="46.12712828814573" lon="13.612877111339646"><ele>554.0</ele><time>2026-05-03T16:23:41Z</time></trkpt><trkpt lat="46.1271987570904" lon="13.612850203189494"><ele>554.0</ele><time>2026-05-03T16:23:46Z</time></trkpt><trkpt lat="46.12727237391832" lon="13.612805624431658"><ele>554.0</ele><time>2026-05-03T16:23:52Z</time></trkpt><trkpt lat="46.12732888299063" lon="13.612763309911228"><ele>554.0</ele><time>2026-05-03T16:23:57Z</time></trkpt><trkpt lat="46.127393819485725" lon="13.612712519173302"><ele>554.0</ele><time>2026-05-03T16:24:03Z</time></trkpt><trkpt lat="46.127449552063645" lon="13.612646135294176"><ele>554.0</ele><time>2026-05-03T16:24:09Z</time></trkpt><trkpt lat="46.127496033066954" lon="13.612579853364888"><ele>552.8571428571429</ele><time>2026-05-03T16:28:29.999Z</time></trkpt><trkpt lat="46.12749222797285" lon="13.612482425342433"><ele>551.7142857142857</ele><time>2026-05-03T16:28:34.999Z</time></trkpt><trkpt lat="46.1274572432489" lon="13.612401119987865"><ele>550.5714285714286</ele><time>2026-05-03T16:28:41.999Z</time></trkpt><trkpt lat="46.127422730685105" lon="13.612311890993618"><ele>549.4285714285714</ele><time>2026-05-03T16:28:47.999Z</time></trkpt><trkpt lat="46.12738122843753" lon="13.612237877922187"><ele>548.2857142857142</ele><time>2026-05-03T16:28:53.999Z</time></trkpt><trkpt lat="46.12733996415136" lon="13.612159675644243"><ele>547.1428571428571</ele><time>2026-05-03T16:28:59.999Z</time></trkpt><trkpt lat="46.12729398281526" lon="13.612092940451191"><ele>546.0</ele><time>2026-05-03T16:29:10.999Z</time></trkpt><trkpt lat="46.12725704450094" lon="13.61201456256066"><ele>546.1428571428571</ele><time>2026-05-03T16:29:17.998Z</time></trkpt><trkpt lat="46.12721859043092" lon="13.61193579897452"><ele>546.2857142857142</ele><time>2026-05-03T16:29:22.998Z</time></trkpt><trkpt lat="46.12717780140987" lon="13.611863816146641"><ele>546.4285714285714</ele><time>2026-05-03T16:29:27.998Z</time></trkpt><trkpt lat="46.127148230960266" lon="13.61178138231782"><ele>546.5714285714286</ele><time>2026-05-03T16:29:32.998Z</time></trkpt><trkpt lat="46.127119163482895" lon="13.6116951899037"><ele>546.7142857142857</ele><time>2026-05-03T16:29:37.998Z</time></trkpt><trkpt lat="46.127088278993725" lon="13.611606008249481"><ele>546.8571428571429</ele><time>2026-05-03T16:29:41.998Z</time></trkpt><trkpt lat="46.12707125120477" lon="13.611508070547837"><ele>547.0</ele><time>2026-05-03T16:29:53.998Z</time></trkpt><trkpt lat="46.12705509207432" lon="13.611419094687276"><ele>547.0</ele><time>2026-05-03T16:29:59Z</time></trkpt><trkpt lat="46.12704037403142" lon="13.611320119812591"><ele>547.0</ele><time>2026-05-03T16:30:05Z</time></trkpt><trkpt lat="46.12701855999697" lon="13.611231198865209"><ele>547.0</ele><time>2026-05-03T16:30:12Z</time></trkpt><trkpt lat="46.12700549472484" lon="13.61113366783212"><ele>547.0</ele><time>2026-05-03T16:30:19Z</time></trkpt><trkpt lat="46.127046473593914" lon="13.611057374445549"><ele>547.0</ele><time>2026-05-03T16:30:24Z</time></trkpt><trkpt lat="46.12708547219104" lon="13.610979229306562"><ele>547.0</ele><time>2026-05-03T16:30:36.999Z</time></trkpt><trkpt lat="46.12713920384586" lon="13.610904370857467"><ele>547.0</ele><time>2026-05-03T16:30:42.999Z</time></trkpt><trkpt lat="46.127200078080996" lon="13.610839377763464"><ele>548.0</ele><time>2026-05-03T16:30:48.999Z</time></trkpt><trkpt lat="46.1272562733265" lon="13.610780546313483"><ele>549.0</ele><time>2026-05-03T16:30:54.999Z</time></trkpt><trkpt lat="46.127315218330985" lon="13.610708407880452"><ele>550.0</ele><time>2026-05-03T16:31:00.999Z</time></trkpt><trkpt lat="46.12734160503926" lon="13.610611827884085"><ele>551.0</ele><time>2026-05-03T16:31:08.999Z</time></trkpt><trkpt lat="46.12736139733217" lon="13.610521100130224"><ele>552.0</ele><time>2026-05-03T16:31:15.999Z</time></trkpt><trkpt lat="46.12735097974114" lon="13.610418716931736"><ele>553.0</ele><time>2026-05-03T16:31:21.998Z</time></trkpt><trkpt lat="46.127353346056864" lon="13.610319858757894"><ele>554.0</ele><time>2026-05-03T16:31:28.998Z</time></trkpt><trkpt lat="46.127343733623256" lon="13.61022985662901"><ele>554.0</ele><time>2026-05-03T16:31:34.998Z</time></trkpt><trkpt lat="46.12733213183333" lon="13.61013002378779"><ele>554.0</ele><time>2026-05-03T16:31:41.998Z</time></trkpt><trkpt lat="46.12730723760031" lon="13.610045184617267"><ele>554.0</ele><time>2026-05-03T16:31:47.998Z</time></trkpt><trkpt lat="46.12726678526296" lon="13.609973820904784"><ele>554.0</ele><time>2026-05-03T16:31:53.998Z</time></trkpt><trkpt lat="46.12725505034836" lon="13.609883587796071"><ele>554.0</ele><time>2026-05-03T16:31:59.998Z</time></trkpt><trkpt lat="46.127264021047715" lon="13.609790324832277"><ele>554.0</ele><time>2026-05-03T16:32:04.999Z</time></trkpt><trkpt lat="46.127278661393795" lon="13.609698086967077"><ele>554.0</ele><time>2026-05-03T16:32:09.999Z</time></trkpt><trkpt lat="46.127312274191645" lon="13.609610631171266"><ele>554.0</ele><time>2026-05-03T16:32:14.999Z</time></trkpt><trkpt lat="46.12733288909502" lon="13.609522227498044"><ele>554.0</ele><time>2026-05-03T16:32:19.999Z</time></trkpt><trkpt lat="46.12735403699293" lon="13.609434114514341"><ele>554.0</ele><time>2026-05-03T16:32:24.999Z</time></trkpt><trkpt lat="46.1273795576615" lon="13.609332728666443"><ele>554.0</ele><time>2026-05-03T16:32:30.999Z</time></trkpt><trkpt lat="46.127406298623605" lon="13.609250079724239"><ele>554.0</ele><time>2026-05-03T16:32:35.999Z</time></trkpt><trkpt lat="46.12741403533487" lon="13.609141227075055"><ele>554.0</ele><time>2026-05-03T16:32:41.999Z</time></trkpt><trkpt lat="46.12739418009884" lon="13.609038990731444"><ele>554.0</ele><time>2026-05-03T16:32:47.999Z</time></trkpt><trkpt lat="46.12734090551597" lon="13.60898646485171"><ele>554.7142857142857</ele><time>2026-05-03T16:32:54.999Z</time></trkpt><trkpt lat="46.12730721264716" lon="13.608903931745882"><ele>555.4285714285713</ele><time>2026-05-03T16:33:00.999Z</time></trkpt><trkpt lat="46.12726658449281" lon="13.608818322421923"><ele>556.1428571428571</ele><time>2026-05-03T16:33:07.999Z</time></trkpt><trkpt lat="46.127238369657796" lon="13.608731754262708"><ele>556.8571428571429</ele><time>2026-05-03T16:33:13.998Z</time></trkpt><trkpt lat="46.12720336345494" lon="13.608636168348722"><ele>557.5714285714287</ele><time>2026-05-03T16:33:19.998Z</time></trkpt><trkpt lat="46.12716329999818" lon="13.608547615941646"><ele>558.2857142857143</ele><time>2026-05-03T16:33:26.998Z</time></trkpt><trkpt lat="46.12713234203601" lon="13.608454452331902"><ele>559.0</ele><time>2026-05-03T16:33:33.998Z</time></trkpt><trkpt lat="46.12711107835508" lon="13.608364118459734"><ele>560.5714285714286</ele><time>2026-05-03T16:33:38.998Z</time></trkpt><trkpt lat="46.12707884305228" lon="13.608283245641847"><ele>562.1428571428572</ele><time>2026-05-03T16:33:43.998Z</time></trkpt><trkpt lat="46.12705655661253" lon="13.608193838131703"><ele>563.7142857142858</ele><time>2026-05-03T16:33:48.998Z</time></trkpt><trkpt lat="46.12703607680406" lon="13.608101760725663"><ele>565.2857142857143</ele><time>2026-05-03T16:33:53.998Z</time></trkpt><trkpt lat="46.12700612575054" lon="13.608016824770836"><ele>566.8571428571429</ele><time>2026-05-03T16:33:59.998Z</time></trkpt><trkpt lat="46.12697192469421" lon="13.607938154966266"><ele>568.4285714285714</ele><time>2026-05-03T16:34:05.997Z</time></trkpt><trkpt lat="46.12691149898868" lon="13.607890496678358"><ele>570.0</ele><time>2026-05-03T16:34:15.999Z</time></trkpt><trkpt lat="46.126867546384176" lon="13.607824525954465"><ele>571.8571428571429</ele><time>2026-05-03T16:34:22.999Z</time></trkpt><trkpt lat="46.12682374415897" lon="13.607754569376711"><ele>573.7142857142858</ele><time>2026-05-03T16:34:32.999Z</time></trkpt><trkpt lat="46.12676631936186" lon="13.60771694803024"><ele>575.5714285714287</ele><time>2026-05-03T16:34:39.999Z</time></trkpt><trkpt lat="46.12671016076038" lon="13.607663489041522"><ele>577.4285714285714</ele><time>2026-05-03T16:34:45.999Z</time></trkpt><trkpt lat="46.12665627594888" lon="13.60759163507935"><ele>579.2857142857143</ele><time>2026-05-03T16:34:58.999Z</time></trkpt><trkpt lat="46.126604895518184" lon="13.607526247219388"><ele>581.1428571428572</ele><time>2026-05-03T16:35:04.999Z</time></trkpt><trkpt lat="46.126552549827245" lon="13.607450093809451"><ele>583.0</ele><time>2026-05-03T16:35:10.999Z</time></trkpt><trkpt lat="46.12650193950041" lon="13.60738609524059"><ele>583.0000000000001</ele><time>2026-05-03T16:35:16.999Z</time></trkpt><trkpt lat="46.12645206887128" lon="13.607306749665968"><ele>583.0</ele><time>2026-05-03T16:35:23.998Z</time></trkpt><trkpt lat="46.126402326406975" lon="13.607235553931485"><ele>583.0</ele><time>2026-05-03T16:35:29.998Z</time></trkpt><trkpt lat="46.126379772102915" lon="13.607138787074469"><ele>583.0</ele><time>2026-05-03T16:35:34.998Z</time></trkpt><trkpt lat="46.12633103615708" lon="13.60707520376689"><ele>583.0</ele><time>2026-05-03T16:35:39.998Z</time></trkpt><trkpt lat="46.12628453354055" lon="13.607010011033546"><ele>583.0000000000001</ele><time>2026-05-03T16:35:44.998Z</time></trkpt><trkpt lat="46.126233774064175" lon="13.606956254246908"><ele>583.0</ele><time>2026-05-03T16:35:56.998Z</time></trkpt><trkpt lat="46.12616849646504" lon="13.60690634972413"><ele>585.1428571428572</ele><time>2026-05-03T16:36:02.998Z</time></trkpt><trkpt lat="46.126109514319815" lon="13.606873204179896"><ele>587.2857142857143</ele><time>2026-05-03T16:36:08.998Z</time></trkpt><trkpt lat="46.12604480460426" lon="13.606815150483971"><ele>589.4285714285714</ele><time>2026-05-03T16:36:15.999Z</time></trkpt><trkpt lat="46.12598623339697" lon="13.606774252861777"><ele>591.5714285714287</ele><time>2026-05-03T16:36:21.999Z</time></trkpt><trkpt lat="46.12591508060312" lon="13.606753799322897"><ele>593.7142857142858</ele><time>2026-05-03T16:36:27.999Z</time></trkpt><trkpt lat="46.1258488684328" lon="13.606696094607894"><ele>595.8571428571429</ele><time>2026-05-03T16:36:34.999Z</time></trkpt><trkpt lat="46.12578815338895" lon="13.606649882370853"><ele>598.0</ele><time>2026-05-03T16:36:40.999Z</time></trkpt><trkpt lat="46.12574314863953" lon="13.606584326790465"><ele>599.1428571428571</ele><time>2026-05-03T16:36:46.999Z</time></trkpt><trkpt lat="46.125718806129896" lon="13.60647658273202"><ele>600.2857142857143</ele><time>2026-05-03T16:36:50.999Z</time></trkpt><trkpt lat="46.1256714402232" lon="13.60640023269758"><ele>601.4285714285714</ele><time>2026-05-03T16:36:55.999Z</time></trkpt><trkpt lat="46.12562485534855" lon="13.606334579485177"><ele>602.5714285714286</ele><time>2026-05-03T16:37:06.999Z</time></trkpt><trkpt lat="46.12558199179518" lon="13.606262977817053"><ele>603.7142857142857</ele><time>2026-05-03T16:37:11.999Z</time></trkpt><trkpt lat="46.12551718197545" lon="13.606248674692507"><ele>604.8571428571429</ele><time>2026-05-03T16:37:18.999Z</time></trkpt><trkpt lat="46.12544861623279" lon="13.606249793221675"><ele>606.0</ele><time>2026-05-03T16:37:25.999Z</time></trkpt><trkpt lat="46.125382281778066" lon="13.606243539402126"><ele>606.0</ele><time>2026-05-03T16:37:32.999Z</time></trkpt><trkpt lat="46.12531407194309" lon="13.606231304909095"><ele>606.0</ele><time>2026-05-03T16:37:39.999Z</time></trkpt><trkpt lat="46.125228996148415" lon="13.606241841961015"><ele>606.0</ele><time>2026-05-03T16:37:46.998Z</time></trkpt><trkpt lat="46.125157049078815" lon="13.60624090163902"><ele>606.0</ele><time>2026-05-03T16:37:54.998Z</time></trkpt><trkpt lat="46.12508807068735" lon="13.606226460367571"><ele>606.0</ele><time>2026-05-03T16:38:00.998Z</time></trkpt><trkpt lat="46.12502009136925" lon="13.606217688777933"><ele>606.0</ele><time>2026-05-03T16:38:05.998Z</time></trkpt><trkpt lat="46.12494925253464" lon="13.606206935028533"><ele>606.0</ele><time>2026-05-03T16:38:11.998Z</time></trkpt><trkpt lat="46.12487661174322" lon="13.606209826003466"><ele>605.5714285714286</ele><time>2026-05-03T16:38:16.998Z</time></trkpt><trkpt lat="46.12481329940722" lon="13.606183594957399"><ele>605.1428571428571</ele><time>2026-05-03T16:38:21.999Z</time></trkpt><trkpt lat="46.12474281673506" lon="13.606149885166689"><ele>604.7142857142858</ele><time>2026-05-03T16:38:26.999Z</time></trkpt><trkpt lat="46.12468988644904" lon="13.606085466392223"><ele>604.2857142857142</ele><time>2026-05-03T16:38:32.999Z</time></trkpt><trkpt lat="46.124654519542666" lon="13.606008619542948"><ele>603.8571428571428</ele><time>2026-05-03T16:38:37.999Z</time></trkpt><trkpt lat="46.12460358891705" lon="13.605940352657239"><ele>603.4285714285714</ele><time>2026-05-03T16:38:42.999Z</time></trkpt><trkpt lat="46.124538191321875" lon="13.605871711764701"><ele>603.0</ele><time>2026-05-03T16:38:47.999Z</time></trkpt><trkpt lat="46.124487750315176" lon="13.605802944429207"><ele>602.0</ele><time>2026-05-03T16:38:52.999Z</time></trkpt><trkpt lat="46.124448947962094" lon="13.605724429934192"><ele>602.0</ele><time>2026-05-03T16:38:57.999Z</time></trkpt><trkpt lat="46.12439766880681" lon="13.605651918073589"><ele>602.0</ele><time>2026-05-03T16:39:03.999Z</time></trkpt><trkpt lat="46.12435668328575" lon="13.60556757696402"><ele>602.0</ele><time>2026-05-03T16:39:09.999Z</time></trkpt><trkpt lat="46.12432845122515" lon="13.605465653569421"><ele>602.0</ele><time>2026-05-03T16:39:14.999Z</time></trkpt><trkpt lat="46.124311305643374" lon="13.6053707579046"><ele>602.0</ele><time>2026-05-03T16:39:19.999Z</time></trkpt></trkseg></trk></gpx>